Time;durP1;ratioP1;P1;durP2;ratioP2;P2;SDS_P1;SDS_P2;PMS_P1;PMS_P2;Temp;Humidity;BMP_temperature;BMP_pressure;BME280_temperature;BME280_humidity;BME280_pressure;Samples;Min_cycle;Max_cycle;Signal;HPM_P1;HPM_P2
2020/12/06 00:00:08;;;;;;;95.88;41.75;;;;;;;0.32;100.00;94264.94;1040337;28;20006;-73
2020/12/06 00:00:39;;;;;;;90.57;38.42;;;;;;;0.32;100.00;94267.56;1032270;28;20073;-73
2020/12/06 00:01:10;;;;;;;89.55;39.33;;;;;;;0.35;100.00;94273.28;1040453;28;20063;-72
2020/12/06 00:01:41;;;;;;;86.25;38.83;;;;;;;0.35;100.00;94269.88;1032260;28;20168;-73
2020/12/06 00:02:12;;;;;;;82.80;38.22;;;;;;;0.36;100.00;94261.03;1032263;28;20121;-73
2020/12/06 00:02:42;;;;;;;89.00;39.78;;;;;;;0.47;100.00;94271.22;1036301;28;20099;-73
2020/12/06 00:03:13;;;;;;;84.95;37.88;;;;;;;0.49;100.00;94278.91;1032165;28;20031;-73
2020/12/06 00:03:44;;;;;;;82.82;38.95;;;;;;;0.48;100.00;94272.03;1036269;28;20120;-73
2020/12/06 00:04:19;;;;;;;102.07;43.80;;;;;;;0.43;100.00;94269.88;1028272;28;20057;-73
2020/12/06 00:04:50;;;;;;;115.13;43.80;;;;;;;0.36;100.00;94267.06;1044448;28;20029;-74
2020/12/06 00:05:21;;;;;;;135.85;47.47;;;;;;;0.34;100.00;94263.81;1028295;28;20369;-72
2020/12/06 00:05:52;;;;;;;132.25;50.05;;;;;;;0.33;100.00;94269.19;1028318;28;20459;-73
2020/12/06 00:06:23;;;;;;;136.88;49.42;;;;;;;0.33;100.00;94264.78;1040346;28;20156;-72
2020/12/06 00:06:54;;;;;;;145.02;51.08;;;;;;;0.36;100.00;94271.47;1036104;28;20036;-73
2020/12/06 00:07:25;;;;;;;150.68;52.75;;;;;;;0.32;100.00;94262.34;1028233;28;20105;-73
2020/12/06 00:07:57;;;;;;;146.63;51.65;;;;;;;0.39;100.00;94265.97;1040475;28;20078;-73
2020/12/06 00:08:28;;;;;;;131.57;49.08;;;;;;;0.42;100.00;94264.81;1032322;28;20030;-73
2020/12/06 00:08:58;;;;;;;127.15;50.20;;;;;;;0.49;100.00;94274.50;1048627;28;20024;-73
2020/12/06 00:09:29;;;;;;;137.60;48.83;;;;;;;0.51;100.00;94267.31;1036291;28;20077;-74
2020/12/06 00:10:00;;;;;;;136.65;49.65;;;;;;;0.53;100.00;94257.53;1040424;28;20033;-73
2020/12/06 00:10:31;;;;;;;140.20;51.72;;;;;;;0.54;100.00;94261.78;1040412;28;20017;-74
2020/12/06 00:11:02;;;;;;;147.95;52.95;;;;;;;0.48;100.00;94267.63;1036157;28;20029;-73
2020/12/06 00:11:33;;;;;;;124.63;49.30;;;;;;;0.42;100.00;94267.44;1039999;28;20448;-73
2020/12/06 00:12:04;;;;;;;141.77;52.38;;;;;;;0.38;100.00;94272.13;1036318;28;20046;-73
2020/12/06 00:12:36;;;;;;;147.63;51.15;;;;;;;0.26;100.00;94244.66;1032331;28;20030;-73
2020/12/06 00:13:07;;;;;;;162.55;54.97;;;;;;;0.26;100.00;94265.56;1040279;28;20075;-73
2020/12/06 00:13:37;;;;;;;180.40;57.25;;;;;;;0.21;100.00;94270.41;1028332;28;20599;-72
2020/12/06 00:14:09;;;;;;;188.85;59.00;;;;;;;0.21;100.00;94257.38;1040318;28;20022;-72
2020/12/06 00:14:40;;;;;;;176.48;58.17;;;;;;;0.31;100.00;94263.28;1032249;28;20022;-74
2020/12/06 00:15:11;;;;;;;163.35;54.30;;;;;;;0.36;100.00;94261.03;1028150;28;20506;-74
2020/12/06 00:15:42;;;;;;;140.55;51.60;;;;;;;0.41;100.00;94258.78;1036244;28;20029;-74
2020/12/06 00:16:14;;;;;;;171.63;55.33;;;;;;;0.35;100.00;94254.19;1032128;28;20407;-74
2020/12/06 00:16:48;;;;;;;146.63;51.72;;;;;;;0.12;100.00;94215.59;1036162;28;20120;-74
2020/12/06 00:17:19;;;;;;;153.52;54.05;;;;;;;0.25;100.00;94240.44;1044624;28;20026;-73
2020/12/06 00:17:49;;;;;;;135.60;49.30;;;;;;;0.34;100.00;94249.94;1032214;28;20046;-73
2020/12/06 00:18:20;;;;;;;149.85;49.65;;;;;;;0.40;100.00;94246.72;1036250;28;20560;-73
2020/12/06 00:18:51;;;;;;;125.05;48.47;;;;;;;0.43;100.00;94250.78;1036286;28;20089;-74
2020/12/06 00:19:23;;;;;;;135.95;49.05;;;;;;;0.40;100.00;94259.78;1028265;28;20041;-73
2020/12/06 00:19:53;;;;;;;122.30;47.67;;;;;;;0.45;100.00;94257.47;1036322;28;20068;-73
2020/12/06 00:20:24;;;;;;;109.28;43.45;;;;;;;0.50;100.00;94250.00;1028207;28;20113;-73
2020/12/06 00:20:55;;;;;;;113.43;45.78;;;;;;;0.54;100.00;94259.19;1032151;28;20038;-73
2020/12/06 00:21:26;;;;;;;113.75;45.03;;;;;;;0.57;100.00;94252.81;1032181;28;20483;-74
2020/12/06 00:21:57;;;;;;;93.50;43.33;;;;;;;0.59;100.00;94263.09;1032149;28;20516;-73
2020/12/06 00:22:27;;;;;;;103.00;44.63;;;;;;;0.54;100.00;94260.94;1040395;28;20478;-73
2020/12/06 00:22:59;;;;;;;99.15;43.83;;;;;;;0.57;100.00;94271.09;1036072;28;20112;-73
2020/12/06 00:23:30;;;;;;;96.72;41.88;;;;;;;0.64;100.00;94266.06;1044392;28;20489;-73
2020/12/06 00:24:04;;;;;;;97.32;42.83;;;;;;;0.51;100.00;94272.53;1032285;28;20033;-74
2020/12/06 00:24:35;;;;;;;95.88;41.25;;;;;;;0.53;100.00;94281.03;1032132;28;20022;-73
2020/12/06 00:25:06;;;;;;;96.45;41.47;;;;;;;0.49;100.00;94273.69;1035982;28;20370;-73
2020/12/06 00:25:36;;;;;;;93.55;41.13;;;;;;;0.59;100.00;94286.59;1028171;28;20471;-73
2020/12/06 00:26:07;;;;;;;94.07;41.33;;;;;;;0.61;100.00;94280.28;1032305;28;20068;-72
2020/12/06 00:26:38;;;;;;;96.75;42.10;;;;;;;0.59;100.00;94286.59;1036159;28;20049;-73
2020/12/06 00:27:09;;;;;;;99.00;42.03;;;;;;;0.59;100.00;94291.84;1032165;28;20465;-73
2020/12/06 00:27:40;;;;;;;95.20;42.33;;;;;;;0.63;100.00;94296.59;1040408;28;20321;-73
2020/12/06 00:28:11;;;;;;;95.13;42.42;;;;;;;0.56;100.00;94290.38;1032121;28;20030;-73
2020/12/06 00:28:41;;;;;;;99.63;42.22;;;;;;;0.57;100.00;94299.81;1032171;28;20087;-73
2020/12/06 00:29:12;;;;;;;88.50;40.35;;;;;;;0.54;100.00;94281.84;1036137;28;20030;-73
2020/12/06 00:29:43;;;;;;;93.18;40.40;;;;;;;0.65;100.00;94286.81;1032142;28;20030;-73
2020/12/06 00:30:14;;;;;;;94.32;39.83;;;;;;;0.56;100.00;94280.72;1044415;28;20025;-73
2020/12/06 00:30:45;;;;;;;96.93;42.30;;;;;;;0.55;100.00;94278.28;1032150;28;20014;-73
2020/12/06 00:31:16;;;;;;;84.22;39.97;;;;;;;0.69;100.00;94301.19;1044436;28;20032;-73
2020/12/06 00:31:48;;;;;;;88.15;39.58;;;;;;;0.68;100.00;94290.88;1032241;28;20022;-73
2020/12/06 00:32:19;;;;;;;93.05;40.10;;;;;;;0.70;100.00;94292.38;1036183;28;20207;-73
2020/12/06 00:32:50;;;;;;;89.43;40.47;;;;;;;0.70;100.00;94287.16;1040121;28;20033;-72
2020/12/06 00:33:22;;;;;;;92.07;41.78;;;;;;;0.72;100.00;94294.84;1032368;28;20025;-73
2020/12/06 00:33:53;;;;;;;93.53;39.95;;;;;;;0.59;100.00;94284.00;1036253;28;20022;-73
2020/12/06 00:34:24;;;;;;;94.80;40.38;;;;;;;0.52;100.00;94283.78;1036292;28;20029;-74
2020/12/06 00:34:55;;;;;;;104.40;43.20;;;;;;;0.54;100.00;94293.13;1032125;28;20081;-73
2020/12/06 00:35:26;;;;;;;114.13;45.80;;;;;;;0.51;100.00;94283.00;1040402;28;20037;-73
2020/12/06 00:35:57;;;;;;;124.22;47.67;;;;;;;0.42;100.00;94278.72;1036190;28;20026;-73
2020/12/06 00:36:28;;;;;;;142.65;49.63;;;;;;;0.33;100.00;94274.41;1028158;28;20046;-73
2020/12/06 00:36:59;;;;;;;156.15;50.17;;;;;;;0.37;100.00;94280.97;1036036;28;20017;-74
2020/12/06 00:37:30;;;;;;;166.13;53.00;;;;;;;0.37;100.00;94284.38;1040330;28;20163;-73
2020/12/06 00:38:02;;;;;;;159.20;51.15;;;;;;;0.44;100.00;94287.19;1028109;28;20054;-74
2020/12/06 00:38:32;;;;;;;146.23;51.92;;;;;;;0.43;100.00;94293.38;1032195;28;20030;-73
2020/12/06 00:39:03;;;;;;;138.48;51.08;;;;;;;0.49;100.00;94290.16;1032077;28;20114;-73
2020/12/06 00:39:34;;;;;;;130.10;50.22;;;;;;;0.54;100.00;94298.34;1024224;28;20051;-73
2020/12/06 00:40:06;;;;;;;144.15;49.85;;;;;;;0.59;100.00;94302.28;1036226;28;20028;-73
2020/12/06 00:40:37;;;;;;;140.70;50.75;;;;;;;0.59;100.00;94291.84;1028084;28;20109;-73
2020/12/06 00:41:11;;;;;;;153.32;51.47;;;;;;;0.49;100.00;94300.59;1044326;28;20397;-72
2020/12/06 00:41:44;;;;;;;146.55;51.30;;;;;;;0.59;100.00;94297.88;1040289;28;20473;-73
2020/12/06 00:42:14;;;;;;;125.63;49.08;;;;;;;0.46;100.00;94274.00;1032299;28;20091;-73
2020/12/06 00:42:45;;;;;;;117.72;47.33;;;;;;;0.66;100.00;94291.06;1036145;28;20115;-73
2020/12/06 00:43:16;;;;;;;135.15;49.25;;;;;;;0.65;100.00;94299.06;1040263;28;20478;-73
2020/12/06 00:43:47;;;;;;;132.55;48.60;;;;;;;0.66;100.00;94290.22;1028105;28;20377;-72
2020/12/06 00:44:18;;;;;;;151.93;51.72;;;;;;;0.53;100.00;94285.44;1032157;28;20030;-73
2020/12/06 00:44:49;;;;;;;145.45;50.47;;;;;;;0.63;100.00;94295.75;1028151;28;20031;-73
2020/12/06 00:45:20;;;;;;;143.02;51.63;;;;;;;0.47;100.00;94288.66;1036170;28;20064;-73
2020/12/06 00:45:51;;;;;;;136.80;51.47;;;;;;;0.63;100.00;94303.59;1028165;28;20098;-73
2020/12/06 00:46:22;;;;;;;134.57;49.63;;;;;;;0.65;100.00;94302.47;1032165;28;20036;-73
2020/12/06 00:46:53;;;;;;;145.68;52.00;;;;;;;0.62;100.00;94315.03;1040289;28;20096;-73
2020/12/06 00:47:24;;;;;;;126.00;48.40;;;;;;;0.65;100.00;94312.94;1040374;28;20101;-73
2020/12/06 00:47:56;;;;;;;132.45;50.00;;;;;;;0.68;100.00;94311.78;1036346;28;20413;-73
2020/12/06 00:48:27;;;;;;;136.27;51.15;;;;;;;0.68;100.00;94310.00;1036248;28;20034;-72
2020/12/06 00:48:58;;;;;;;140.18;50.40;;;;;;;0.61;100.00;94298.56;1036138;28;20025;-73
2020/12/06 00:49:29;;;;;;;146.35;51.92;;;;;;;0.66;100.00;94300.69;1040321;28;20478;-73
2020/12/06 00:50:00;;;;;;;147.65;51.80;;;;;;;0.64;100.00;94292.19;1028079;28;20058;-73
2020/12/06 00:50:30;;;;;;;166.05;53.25;;;;;;;0.70;100.00;94299.41;1044195;28;20345;-74
2020/12/06 00:51:01;;;;;;;160.20;52.55;;;;;;;0.66;100.00;94304.13;1040075;28;20155;-73
2020/12/06 00:51:32;;;;;;;125.93;47.15;;;;;;;0.73;100.00;94296.47;1024189;29;20034;-73
2020/12/06 00:52:03;;;;;;;115.95;45.90;;;;;;;0.80;100.00;94288.81;1036116;28;20026;-73
2020/12/06 00:52:34;;;;;;;119.57;46.22;;;;;;;0.82;100.00;94289.47;1023944;29;20027;-73
2020/12/06 00:53:05;;;;;;;104.28;44.88;;;;;;;0.85;100.00;94289.97;1036023;28;20124;-73
2020/12/06 00:53:36;;;;;;;120.30;47.03;;;;;;;0.84;100.00;94288.34;1036185;28;20467;-73
2020/12/06 00:54:07;;;;;;;132.38;48.25;;;;;;;0.77;100.00;94282.13;1036135;28;20021;-72
2020/12/06 00:54:37;;;;;;;148.23;49.83;;;;;;;0.69;100.00;94280.28;1040219;28;20044;-73
2020/12/06 00:55:08;;;;;;;145.65;51.17;;;;;;;0.65;100.00;94273.75;1032032;28;20037;-73
2020/12/06 00:55:39;;;;;;;155.70;51.10;;;;;;;0.61;100.00;94277.66;1032046;28;20022;-73
2020/12/06 00:56:19;;;;;;;167.60;53.72;;;;;;;0.61;100.00;94275.03;1032081;28;20046;-73
2020/12/06 00:56:57;;;;;;;145.63;50.85;;;;;;;0.61;100.00;94274.22;1040148;28;20044;-73
2020/12/06 00:57:28;;;;;;;154.35;50.83;;;;;;;0.62;100.00;94273.25;1028244;28;20333;-73
2020/12/06 00:58:00;;;;;;;148.77;50.63;;;;;;;0.63;100.00;94264.41;1040220;28;20548;-73
2020/12/06 00:58:31;;;;;;;142.38;51.40;;;;;;;0.49;100.00;94258.03;1040267;28;20021;-74
2020/12/06 00:59:01;;;;;;;144.70;51.20;;;;;;;0.50;100.00;94262.25;1028044;28;20191;-73
2020/12/06 00:59:32;;;;;;;150.90;54.58;;;;;;;0.49;100.00;94264.06;1044426;28;20039;-73
2020/12/06 01:00:07;;;;;;;140.85;49.35;;;;;;;0.47;100.00;94263.41;1036030;28;20025;-73
2020/12/06 01:00:37;;;;;;;161.60;54.00;;;;;;;0.43;100.00;94264.66;1028064;28;20050;-73
2020/12/06 01:01:08;;;;;;;165.73;54.80;;;;;;;0.41;100.00;94256.16;1031954;28;20426;-73
2020/12/06 01:01:39;;;;;;;163.02;53.63;;;;;;;0.43;100.00;94249.00;1028144;28;20394;-72
2020/12/06 01:02:11;;;;;;;182.45;54.80;;;;;;;0.46;100.00;94256.53;1027986;28;20019;-72
2020/12/06 01:02:42;;;;;;;183.25;57.55;;;;;;;0.48;100.00;94258.97;1027995;28;20030;-73
2020/12/06 01:03:12;;;;;;;195.05;58.42;;;;;;;0.45;100.00;94261.91;1036022;28;20109;-73
2020/12/06 01:03:44;;;;;;;216.15;59.72;;;;;;;0.39;100.00;94258.13;1028087;28;20471;-73
2020/12/06 01:04:15;;;;;;;192.05;58.90;;;;;;;0.36;100.00;94255.81;1044306;28;20472;-73
2020/12/06 01:04:45;;;;;;;196.80;60.45;;;;;;;0.33;100.00;94262.19;1023901;28;20089;-73
2020/12/06 01:05:16;;;;;;;181.35;58.22;;;;;;;0.46;100.00;94274.00;1036201;28;20025;-73
2020/12/06 01:05:48;;;;;;;194.32;57.22;;;;;;;0.50;100.00;94272.69;1036175;28;20100;-73
2020/12/06 01:06:19;;;;;;;220.55;62.13;;;;;;;0.54;100.00;94269.63;1028013;28;20026;-73
2020/12/06 01:06:50;;;;;;;193.55;55.97;;;;;;;0.51;100.00;94272.53;1031908;28;20029;-73
2020/12/06 01:07:20;;;;;;;213.63;60.72;;;;;;;0.53;100.00;94270.59;1036148;28;20093;-73
2020/12/06 01:07:51;;;;;;;183.02;57.17;;;;;;;0.42;100.00;94252.59;1036088;28;20033;-73
2020/12/06 01:08:22;;;;;;;165.40;55.60;;;;;;;0.58;100.00;94277.16;1032069;28;20485;-73
2020/12/06 01:08:54;;;;;;;173.93;54.90;;;;;;;0.50;100.00;94270.88;1027888;28;20031;-73
2020/12/06 01:09:25;;;;;;;181.15;55.90;;;;;;;0.47;100.00;94263.41;1032179;28;20019;-73
2020/12/06 01:09:56;;;;;;;176.65;54.80;;;;;;;0.47;100.00;94270.38;1027990;28;20491;-73
2020/12/06 01:10:27;;;;;;;180.23;54.38;;;;;;;0.42;100.00;94262.19;1032048;28;20098;-73
2020/12/06 01:10:58;;;;;;;189.23;57.00;;;;;;;0.47;100.00;94271.22;1032001;28;20022;-73
2020/12/06 01:11:28;;;;;;;161.10;53.78;;;;;;;0.53;100.00;94278.41;1035781;28;20112;-73
2020/12/06 01:11:59;;;;;;;138.32;51.00;;;;;;;0.59;100.00;94281.38;1036102;28;20038;-73
2020/12/06 01:12:30;;;;;;;149.45;52.58;;;;;;;0.58;100.00;94277.97;1032181;28;20129;-73
2020/12/06 01:13:00;;;;;;;146.45;51.08;;;;;;;0.63;100.00;94280.94;1044129;28;20039;-73
2020/12/06 01:13:32;;;;;;;128.98;47.42;;;;;;;0.59;100.00;94282.19;1036119;28;20025;-73
2020/12/06 01:14:02;;;;;;;138.35;48.90;;;;;;;0.60;100.00;94275.19;1036173;28;20183;-73
2020/12/06 01:14:33;;;;;;;143.27;49.65;;;;;;;0.49;100.00;94271.88;1036153;28;20104;-74
2020/12/06 01:15:05;;;;;;;142.48;49.00;;;;;;;0.48;100.00;94277.25;1031987;28;20105;-73
2020/12/06 01:15:35;;;;;;;129.30;49.03;;;;;;;0.53;100.00;94281.03;1032106;28;20026;-73
2020/12/06 01:16:06;;;;;;;144.82;48.63;;;;;;;0.56;100.00;94278.13;1039959;28;20033;-73
2020/12/06 01:16:37;;;;;;;143.63;51.08;;;;;;;0.56;100.00;94272.91;1027834;28;20117;-74
2020/12/06 01:17:08;;;;;;;136.50;47.92;;;;;;;0.60;100.00;94277.81;1036090;28;20113;-73
2020/12/06 01:17:39;;;;;;;130.35;48.53;;;;;;;0.65;100.00;94262.50;1040213;28;20128;-73
2020/12/06 01:18:10;;;;;;;133.07;47.60;;;;;;;0.62;100.00;94257.56;1028047;28;20058;-73
2020/12/06 01:18:41;;;;;;;137.90;50.67;;;;;;;0.61;100.00;94266.38;1036026;28;20485;-73
2020/12/06 01:19:12;;;;;;;127.50;48.15;;;;;;;0.53;100.00;94241.84;1044157;28;20123;-73
2020/12/06 01:19:43;;;;;;;148.50;48.67;;;;;;;0.55;100.00;94247.75;1032158;28;20022;-73
2020/12/06 01:20:14;;;;;;;156.30;51.60;;;;;;;0.61;100.00;94250.69;1040131;28;20018;-73
2020/12/06 01:20:44;;;;;;;148.27;50.83;;;;;;;0.47;100.00;94233.84;1027821;28;20153;-73
2020/12/06 01:21:15;;;;;;;153.27;53.13;;;;;;;0.54;100.00;94253.94;1035991;28;20490;-73
2020/12/06 01:21:49;;;;;;;132.98;50.03;;;;;;;0.48;100.00;94240.69;1027827;28;20436;-72
2020/12/06 01:22:19;;;;;;;121.45;47.67;;;;;;;0.62;100.00;94268.03;1032043;28;20019;-73
2020/12/06 01:22:50;;;;;;;122.65;48.30;;;;;;;0.64;100.00;94264.25;1044145;28;20044;-73
2020/12/06 01:23:22;;;;;;;145.07;50.03;;;;;;;0.68;100.00;94259.53;1023963;28;20015;-73
2020/12/06 01:23:52;;;;;;;141.32;50.30;;;;;;;0.59;100.00;94257.88;1036082;28;20089;-73
2020/12/06 01:24:23;;;;;;;144.63;49.90;;;;;;;0.59;100.00;94253.47;1044125;28;20017;-73
2020/12/06 01:24:54;;;;;;;145.68;50.08;;;;;;;0.61;100.00;94253.31;1035860;28;20177;-73
2020/12/06 01:25:25;;;;;;;151.02;50.95;;;;;;;0.61;100.00;94255.91;1035942;28;20504;-73
2020/12/06 01:25:56;;;;;;;124.00;49.05;;;;;;;0.48;100.00;94230.25;1048569;28;20578;-73
2020/12/06 01:26:27;;;;;;;145.30;50.08;;;;;;;0.60;100.00;94254.31;1040044;28;20076;-73
2020/12/06 01:26:58;;;;;;;158.07;53.80;;;;;;;0.49;100.00;94250.19;1040074;28;20075;-73
2020/12/06 01:27:29;;;;;;;190.82;55.80;;;;;;;0.42;100.00;94246.53;1032041;28;20384;-73
2020/12/06 01:28:00;;;;;;;134.60;50.17;;;;;;;0.54;100.00;94237.44;1036133;28;20439;-72
2020/12/06 01:28:31;;;;;;;142.75;51.78;;;;;;;0.59;100.00;94239.59;1044110;28;20020;-73
2020/12/06 01:29:01;;;;;;;137.30;49.33;;;;;;;0.62;100.00;94236.69;1036006;28;20021;-73
2020/12/06 01:29:33;;;;;;;140.23;49.70;;;;;;;0.54;100.00;94233.06;1032331;28;20022;-73
2020/12/06 01:30:05;;;;;;;141.48;49.90;;;;;;;0.65;100.00;94244.22;1028094;28;20041;-73
2020/12/06 01:30:36;;;;;;;134.27;49.35;;;;;;;0.68;100.00;94236.03;1040041;28;20012;-73
2020/12/06 01:31:07;;;;;;;127.18;48.75;;;;;;;0.71;100.00;94243.56;1040000;28;20012;-72
2020/12/06 01:31:38;;;;;;;135.48;50.10;;;;;;;0.69;100.00;94240.28;1036070;28;20017;-73
2020/12/06 01:32:09;;;;;;;142.90;50.63;;;;;;;0.59;100.00;94226.53;1036070;28;20072;-73
2020/12/06 01:32:39;;;;;;;145.75;50.70;;;;;;;0.66;100.00;94244.06;1027883;28;20018;-73
2020/12/06 01:33:10;;;;;;;137.35;50.80;;;;;;;0.63;100.00;94246.97;1035984;28;20471;-73
2020/12/06 01:33:41;;;;;;;132.63;48.13;;;;;;;0.67;100.00;94253.50;1023958;29;20015;-73
2020/12/06 01:34:12;;;;;;;129.70;47.45;;;;;;;0.53;100.00;94217.53;1028020;28;20046;-72
2020/12/06 01:34:43;;;;;;;146.00;50.75;;;;;;;0.70;100.00;94247.97;1027815;28;20106;-73
2020/12/06 01:35:14;;;;;;;125.70;48.15;;;;;;;0.75;100.00;94245.72;1027966;28;20019;-73
2020/12/06 01:35:44;;;;;;;134.82;47.63;;;;;;;0.68;100.00;94249.09;1036039;28;20116;-72
2020/12/06 01:36:15;;;;;;;133.02;46.50;;;;;;;0.61;100.00;94248.09;1031873;28;20073;-73
2020/12/06 01:36:48;;;;;;;126.47;48.35;;;;;;;0.54;100.00;94238.28;1039385;28;20013;-73
2020/12/06 01:37:19;;;;;;;126.30;47.90;;;;;;;0.49;100.00;94232.72;1028036;28;20014;-72
2020/12/06 01:37:49;;;;;;;124.93;48.40;;;;;;;0.50;100.00;94251.81;1028041;28;20018;-72
2020/12/06 01:38:20;;;;;;;123.95;47.50;;;;;;;0.44;100.00;94249.84;1035975;28;20522;-73
2020/12/06 01:38:51;;;;;;;124.00;46.95;;;;;;;0.39;100.00;94246.88;1031849;28;20449;-74
2020/12/06 01:39:22;;;;;;;131.05;47.60;;;;;;;0.39;100.00;94246.88;1031944;28;20105;-72
2020/12/06 01:39:53;;;;;;;129.57;47.42;;;;;;;0.42;100.00;94242.16;1027966;28;20105;-73
2020/12/06 01:40:24;;;;;;;136.15;49.50;;;;;;;0.37;100.00;94233.97;1024016;28;20026;-72
2020/12/06 01:40:55;;;;;;;124.38;47.95;;;;;;;0.44;100.00;94240.19;1035918;28;20021;-72
2020/12/06 01:41:26;;;;;;;132.23;49.72;;;;;;;0.40;100.00;94233.66;1040154;28;20385;-73
2020/12/06 01:41:57;;;;;;;137.13;50.50;;;;;;;0.40;100.00;94235.44;1040227;28;20041;-73
2020/12/06 01:42:28;;;;;;;132.57;51.88;;;;;;;0.40;100.00;94225.84;1044238;28;20041;-72
2020/12/06 01:42:58;;;;;;;134.80;48.28;;;;;;;0.36;100.00;94219.25;1035951;28;20395;-72
2020/12/06 01:43:29;;;;;;;133.98;49.25;;;;;;;0.28;100.00;94204.41;1031995;28;20014;-72
2020/12/06 01:44:00;;;;;;;142.32;49.28;;;;;;;0.37;100.00;94213.09;1036043;28;20108;-73
2020/12/06 01:44:31;;;;;;;149.00;50.08;;;;;;;0.40;100.00;94212.78;1032146;28;20061;-74
2020/12/06 01:45:02;;;;;;;153.15;51.78;;;;;;;0.46;100.00;94219.16;1031710;28;20105;-73
2020/12/06 01:45:33;;;;;;;138.88;51.40;;;;;;;0.49;100.00;94218.84;1036027;28;20014;-73
2020/12/06 01:46:04;;;;;;;161.38;55.17;;;;;;;0.43;100.00;94216.84;1035997;28;20113;-73
2020/12/06 01:46:36;;;;;;;164.38;54.25;;;;;;;0.35;100.00;94228.91;1031993;28;20378;-73
2020/12/06 01:47:07;;;;;;;157.25;52.55;;;;;;;0.44;100.00;94214.09;1035844;28;20104;-73
2020/12/06 01:47:38;;;;;;;142.98;48.67;;;;;;;0.45;100.00;94210.47;1032104;28;20490;-73
2020/12/06 01:48:09;;;;;;;127.53;49.45;;;;;;;0.54;100.00;94222.63;1035895;28;20379;-73
2020/12/06 01:48:40;;;;;;;136.73;49.88;;;;;;;0.56;100.00;94225.88;1032078;28;20046;-74
2020/12/06 01:49:11;;;;;;;134.73;47.63;;;;;;;0.58;100.00;94225.72;1032020;28;20108;-73
2020/12/06 01:49:42;;;;;;;133.68;48.05;;;;;;;0.55;100.00;94234.69;1040159;28;20394;-73
2020/12/06 01:50:13;;;;;;;148.27;50.90;;;;;;;0.48;100.00;94228.44;1036139;28;20057;-72
2020/12/06 01:50:44;;;;;;;149.40;50.60;;;;;;;0.46;100.00;94240.03;1024056;29;20027;-74
2020/12/06 01:51:16;;;;;;;155.68;52.65;;;;;;;0.41;100.00;94229.25;1035960;28;20022;-73
2020/12/06 01:51:52;;;;;;;148.05;50.13;;;;;;;0.34;100.00;94235.09;1036041;28;20479;-73
2020/12/06 01:52:24;;;;;;;154.32;51.67;;;;;;;0.33;100.00;94230.84;1035905;28;20018;-73
2020/12/06 01:52:55;;;;;;;153.85;51.58;;;;;;;0.39;100.00;94225.97;1035814;28;20446;-73
2020/12/06 01:53:25;;;;;;;158.98;52.10;;;;;;;0.43;100.00;94233.31;1031955;28;20529;-73
2020/12/06 01:53:56;;;;;;;155.95;51.80;;;;;;;0.49;100.00;94227.50;1035950;28;20036;-73
2020/12/06 01:54:27;;;;;;;171.18;53.60;;;;;;;0.41;100.00;94227.44;1036025;28;20025;-74
2020/12/06 01:54:58;;;;;;;179.05;54.95;;;;;;;0.42;100.00;94225.66;1031725;28;20019;-73
2020/12/06 01:55:30;;;;;;;156.88;52.70;;;;;;;0.23;100.00;94180.56;1031790;28;20418;-73
2020/12/06 01:56:01;;;;;;;145.98;49.85;;;;;;;0.54;100.00;94216.56;1040121;28;20023;-73
2020/12/06 01:56:31;;;;;;;169.15;54.85;;;;;;;0.50;100.00;94218.66;1027972;28;20022;-74
2020/12/06 01:57:04;;;;;;;176.63;55.95;;;;;;;0.42;100.00;94216.03;1035833;28;20450;-73
2020/12/06 01:57:36;;;;;;;191.65;55.78;;;;;;;0.42;100.00;94204.75;1044223;28;20044;-73
2020/12/06 01:58:07;;;;;;;198.60;58.33;;;;;;;0.46;100.00;94204.31;1036017;28;20380;-72
2020/12/06 01:58:39;;;;;;;188.98;56.25;;;;;;;0.45;100.00;94192.19;1035876;28;20014;-73
2020/12/06 01:59:11;;;;;;;174.27;55.83;;;;;;;0.54;100.00;94200.88;1031925;28;20109;-73
2020/12/06 01:59:42;;;;;;;194.80;56.55;;;;;;;0.48;100.00;94198.91;1032155;28;20069;-73
2020/12/06 02:00:13;;;;;;;187.30;57.38;;;;;;;0.41;100.00;94193.50;1028077;28;20521;-73
2020/12/06 02:00:46;;;;;;;164.80;55.30;;;;;;;0.41;100.00;94187.47;1027893;28;20038;-75
2020/12/06 02:01:17;;;;;;;191.45;57.00;;;;;;;0.40;100.00;94189.28;1027937;28;20030;-73
2020/12/06 02:01:58;;;;;;;152.75;52.60;;;;;;;0.43;100.00;94195.97;1036022;28;20493;-73
2020/12/06 02:02:29;;;;;;;182.98;53.70;;;;;;;0.42;100.00;94189.09;1035949;28;20091;-73
2020/12/06 02:03:00;;;;;;;192.30;55.75;;;;;;;0.31;100.00;94177.16;1035757;28;20030;-73
2020/12/06 02:03:31;;;;;;;191.52;57.22;;;;;;;0.27;100.00;94186.28;1031989;28;20499;-73
2020/12/06 02:04:02;;;;;;;192.75;57.38;;;;;;;0.30;100.00;94186.78;1036117;28;20013;-73
2020/12/06 02:04:33;;;;;;;164.43;54.28;;;;;;;0.29;100.00;94186.94;1031932;28;20018;-73
2020/12/06 02:05:04;;;;;;;193.48;57.72;;;;;;;0.28;100.00;94195.72;1040026;28;20513;-74
2020/12/06 02:05:35;;;;;;;208.57;60.78;;;;;;;0.23;100.00;94195.38;1036060;28;20545;-73
2020/12/06 02:06:06;;;;;;;225.10;61.90;;;;;;;0.33;100.00;94188.25;1044155;28;20013;-74
2020/12/06 02:06:37;;;;;;;198.85;57.80;;;;;;;0.36;100.00;94185.31;1031973;28;20046;-73
2020/12/06 02:07:08;;;;;;;202.25;57.03;;;;;;;0.41;100.00;94188.28;1031756;28;20038;-74
2020/12/06 02:07:39;;;;;;;162.43;53.97;;;;;;;0.45;100.00;94183.56;1027887;28;20110;-72
2020/12/06 02:08:10;;;;;;;189.05;57.15;;;;;;;0.44;100.00;94182.75;1031837;28;20030;-73
2020/12/06 02:08:41;;;;;;;181.45;58.63;;;;;;;0.46;100.00;94175.56;1035879;28;20097;-73
2020/12/06 02:09:12;;;;;;;190.15;58.47;;;;;;;0.43;100.00;94159.41;1039989;28;20021;-73
2020/12/06 02:09:44;;;;;;;230.00;63.05;;;;;;;0.44;100.00;94172.31;1031920;28;20046;-73
2020/12/06 02:10:14;;;;;;;244.05;66.03;;;;;;;0.37;100.00;94168.69;1031844;28;20022;-73
2020/12/06 02:10:45;;;;;;;266.13;65.20;;;;;;;0.25;100.00;94160.31;1035793;28;20561;-75
2020/12/06 02:11:28;;;;;;;297.63;68.30;;;;;;;0.27;100.00;94154.94;1031588;28;20022;-73
2020/12/06 02:11:59;;;;;;;299.67;67.32;;;;;;;0.11;100.00;94125.19;1035963;28;20018;-73
2020/12/06 02:12:30;;;;;;;285.70;65.20;;;;;;;0.27;100.00;94152.34;1035780;28;20022;-73
2020/12/06 02:13:01;;;;;;;223.02;59.60;;;;;;;0.31;100.00;94158.88;1023751;28;20039;-73
2020/12/06 02:13:32;;;;;;;249.55;63.83;;;;;;;0.35;100.00;94155.00;1031828;28;20471;-73
2020/12/06 02:14:03;;;;;;;279.85;66.15;;;;;;;0.35;100.00;94165.44;1035882;28;20022;-72
2020/12/06 02:14:35;;;;;;;289.45;66.32;;;;;;;0.34;100.00;94161.19;1031820;28;20509;-73
2020/12/06 02:15:05;;;;;;;324.70;69.28;;;;;;;0.35;100.00;94162.81;1035858;28;20018;-73
2020/12/06 02:15:36;;;;;;;266.60;65.85;;;;;;;0.33;100.00;94165.59;1035918;28;20029;-73
2020/12/06 02:16:07;;;;;;;211.38;59.63;;;;;;;0.29;100.00;94159.03;1031746;28;20030;-73
2020/12/06 02:16:38;;;;;;;174.68;56.22;;;;;;;0.34;100.00;94166.41;1031699;28;20022;-73
2020/12/06 02:17:09;;;;;;;166.02;55.92;;;;;;;0.35;100.00;94168.03;1039926;28;20029;-73
2020/12/06 02:17:40;;;;;;;146.20;51.65;;;;;;;0.39;100.00;94166.75;1031870;28;20022;-73
2020/12/06 02:18:11;;;;;;;149.27;54.58;;;;;;;0.40;100.00;94165.78;1040123;28;20017;-72
2020/12/06 02:18:42;;;;;;;151.27;52.72;;;;;;;0.42;100.00;94156.00;1027772;28;20089;-73
2020/12/06 02:19:14;;;;;;;145.98;52.60;;;;;;;0.43;100.00;94152.38;1035911;28;20018;-73
2020/12/06 02:19:45;;;;;;;157.98;51.85;;;;;;;0.43;100.00;94147.16;1035880;28;20053;-73
2020/12/06 02:20:16;;;;;;;160.35;54.63;;;;;;;0.45;100.00;94142.59;1039922;28;20107;-73
2020/12/06 02:20:48;;;;;;;171.88;55.72;;;;;;;0.44;100.00;94146.19;1039758;28;20470;-73
2020/12/06 02:21:19;;;;;;;158.50;53.05;;;;;;;0.41;100.00;94141.28;1043940;28;20028;-73
2020/12/06 02:21:49;;;;;;;176.70;54.72;;;;;;;0.37;100.00;94127.75;1035842;28;20033;-73